Date,TemperatureHighF,TemperatureAvgF,TemperatureLowF,DewpointHighF,DewpointAvgF,DewpointLowF,HumidityHigh,HumidityAvg,HumidityLow,PressureMaxIn,PressureMinIn,WindSpeedMaxMPH,WindSpeedAvgMPH,GustSpeedMaxMPH,PrecipitationSumIn
2013-11-1,69,60,49,64,56,46,100,86,51,29.77,29.48,3,0,7,0.32
2013-11-2,66,50,41,50,45,41,98,83,51,29.82,29.65,3,0,5,0.00
2013-11-3,46,39,29,43,31,19,94,72,58,30.52,29.82,5,1,11,0.00
2013-11-4,44,32,23,25,21,18,91,65,36,30.73,30.54,4,0,8,0.00
2013-11-5,54,41,28,39,33,23,90,73,54,30.73,30.52,1,0,5,0.00
2013-11-6,58,50,42,47,44,39,88,79,65,30.53,30.06,2,0,6,0.00
2013-11-7,56,48,34,56,46,32,98,89,76,30.05,29.80,3,0,6,0.14
2013-11-8,46,40,33,35,31,28,93,72,51,30.21,29.94,4,0,14,0.01
2013-11-9,47,41,35,34,31,26,82,68,53,30.30,30.02,3,0,5,0.00
2013-11-10,51,44,39,33,-85,-100,74,8,68,30.04,29.85,9,1,16,0.01
2013-11-11,50,45,39,-100,-100,-100,0,0,100,30.21,29.97,5,0,10,0.00
2013-11-12,46,35,28,-100,-100,-100,0,0,100,30.32,29.96,5,1,11,0.00
2013-11-13,38,29,22,-100,-100,-100,0,0,100,30.42,30.27,5,0,8,0.00
2013-11-14,56,39,28,-100,-100,-100,0,0,100,30.26,30.12,2,0,6,0.00
2013-11-15,59,43,28,-100,-100,-100,0,0,100,30.26,30.16,2,0,4,0.00
2013-11-16,62,46,37,41,22,-100,94,63,38,30.37,30.25,1,0,3,0.01
2013-11-17,57,49,40,57,48,37,100,96,89,30.31,29.78,0,0,2,0.14
2013-11-18,63,55,46,59,45,30,100,71,44,29.81,29.56,3,0,9,0.17
2013-11-19,45,39,26,33,26,21,82,60,49,30.43,29.81,6,1,17,0.00
2013-11-20,41,30,22,22,18,16,85,64,37,30.69,30.43,2,0,10,0.00
2013-11-21,44,33,19,32,25,17,94,74,51,30.70,30.43,1,0,2,0.00
2013-11-22,53,45,38,49,42,31,98,89,71,30.43,29.93,2,0,5,0.11
2013-11-23,50,38,26,43,25,9,86,60,37,30.07,29.91,6,1,12,0.00
2013-11-24,30,24,21,12,7,-1,64,49,28,30.37,30.01,5,2,18,0.00
2013-11-25,37,27,14,17,14,8,82,59,41,30.50,30.33,2,0,4,0.00
2013-11-26,34,32,28,33,28,15,98,85,51,30.36,29.96,2,0,3,0.45
2013-11-27,44,39,33,44,37,23,100,92,66,29.92,29.43,5,0,10,1.04
2013-11-28,33,28,23,25,16,12,78,62,44,30.51,29.73,8,1,15,0.00
2013-11-29,37,27,19,23,19,12,82,72,54,30.80,30.51,2,0,5,0.00
2013-11-30,34,24,14,22,15,11,91,69,46,30.84,30.44,1,0,3,0.00